Aérodrome :
LOGIN :

S'inscrire | Disclaimer

   EN    FR    IT 

 










Légende :    VFR   VFR Marginal   IFR   IFR Intensif   IFR Très Intensif
Visi : 
Plafond : 
>= 8 km
>= 3000ft
5 à 8 km
1000 à 3000 ft
1500m à 5 km
500 à 1000 ft
800 à 1500m
200 à 500 ft
< 800m
< 200 ft
Symboles :   Orages  Brouillard  Fortes neiges  Fortes précipitations  Vent > 20 kt
SIGMETs :   Divers  Orages  Givrage  Turbulence  Onde Orograph.  Cendres Volcan.







- Altitude de l'aérodrome : 1234 ft
- Code IATA : LUX


ELLX - Luxembourg Findel

DERNIER METAR :
  • 230020Z AUTO 25007KT 9999 BKN006/// OVC007/// 07/06 Q1019 NOSIG

METARs EXPIRÉS :
  • 222350Z 23006KT 190V250 9999 BKN007 07/06 Q1019 NOSIG
  • 222320Z 24007KT 9999 BKN009 07/06 Q1018 NOSIG
  • 222250Z 25006KT 9999 FEW008 BKN047 07/06 Q1018 NOSIG
  • 222220Z 26008KT 9999 FEW008 SCT046 07/06 Q1018 NOSIG
  • 222150Z 26010KT 9999 FEW012 BKN045 07/06 Q1018 NOSIG
  • 222120Z 25009KT 9999 FEW019 SCT031 07/06 Q1018 NOSIG

TAF TAF ELLX
Valide du 23 à 00h jusqu'au 24 à 06h UTC


222300Z 2300/2406 22006KT 9999 SCT012
BECMG 2312/2315 BKN010
TEMPO 2315/2406 2000 -DZRA BKN004
ATIS : +352 4798 27300
Météo : +352 4798 27010 / 27050
Pas de NOTAMs connus pour ce terrain.



MET'MAP, la Météo Aéronautique d'un coup d'oeil ! - Copyright ORBIFLY Décembre 2007 - Disclaimer

ORBIFLY MET'MAP TEAM :

Programmation & Développement : Alexandra Zaïnal
Conception & Développement : Baudouin d'Aumeries
Co-Programmation & Développement : Marc-Olivier Méhu
Soutien technique & logistique : Manuel Goepfert

Contact : metmap@orbifly.com




SOURCES & CREDITS :

   NOAA